^^
Station Historical Data
 
Daily Summary for August 20, 2017 Units:  Metric    English   Both
« Previous Day
Next Day »
Daily Weekly Monthly Yearly Custom
  Current: High: Low: Average:
Temperature: 8.3 °C 15.2 °C 8.1 °C 11.9 °C
Dew Point: -6.7 °C -5.8 °C -9.4 °C -7.3 °C
Humidity: 34% 34% 19% 26%
Wind Speed: 1.4km/h 11.1km/h 0km/h 2.6km/h
Wind Gust: 3.2km/h 12.9km/h - -
WindNE - - NE
Pressure: 1017.5 hPa 1017.5 hPa 1015.1 hPa -
Precipitation: 0 mm      
Historical Graphs
 
 
Tabular Data for August 20, 2017
Time Temperature Dew Point Pressure Wind Wind Speed Wind Gust Humidity Rainfall Rate (Hourly) solar Conditions
00:09 12.8 °C -9 °C 1016.8 hPa NE 9.7 km/h 9.7 km/h 21% 0 mm 0.0 W/m2
00:14 12.3 °C -9.4 °C 1016.8 hPa NE 6.4 km/h 12.9 km/h 21% 0 mm 0.0 W/m2
00:19 12.1 °C -9 °C 1016.8 hPa NE 4.7 km/h 11.3 km/h 22% 0 mm 0.0 W/m2
00:24 12.3 °C -8.8 °C 1016.8 hPa NE 4.7 km/h 9.7 km/h 22% 0 mm 0.0 W/m2
00:29 12.8 °C -8.4 °C 1016.5 hPa NE 4.7 km/h 9.7 km/h 22% 0 mm 0.0 W/m2
00:34 13.1 °C -8.8 °C 1016.5 hPa NE 3.2 km/h 9.7 km/h 21% 0 mm 0.0 W/m2
00:44 13.7 °C -8.9 °C 1016.1 hPa NE 3.2 km/h 9.7 km/h 20% 0 mm 0.0 W/m2
00:49 14 °C -8.6 °C 1016.1 hPa NE 3.2 km/h 8 km/h 20% 0 mm 0.0 W/m2
00:54 14.1 °C -8.5 °C 1016.1 hPa Calm   4.8 km/h 20% 0 mm 0.0 W/m2
01:05 14.6 °C -8.1 °C 1016.1 hPa Calm   6.4 km/h 20% 0 mm 0.0 W/m2
01:10 14.6 °C -8.8 °C 1016.1 hPa Calm     19% 0 mm 0.0 W/m2
01:20 14.5 °C -8.2 °C 1016.1 hPa Calm     20% 0 mm 0.0 W/m2
01:25 14.6 °C -8.1 °C 1016.1 hPa Calm     20% 0 mm 0.0 W/m2
01:30 14.4 °C -8.3 °C 1015.8 hPa NE 1.4 km/h 6.4 km/h 20% 0 mm 0.0 W/m2
01:35 14.1 °C -8.5 °C 1015.8 hPa NE 3.2 km/h 4.8 km/h 20% 0 mm 0.0 W/m2
01:40 13.7 °C -8.9 °C 1015.8 hPa NE 4.7 km/h 8 km/h 20% 0 mm 0.0 W/m2
01:45 13.2 °C -8.7 °C 1015.5 hPa NE 3.2 km/h 4.8 km/h 21% 0 mm 0.0 W/m2
01:50 13 °C -8.8 °C 1015.5 hPa NE 3.2 km/h 8 km/h 21% 0 mm 0.0 W/m2
02:00 13.2 °C -8.1 °C 1015.1 hPa NE 11.1 km/h 11.3 km/h 22% 0 mm 0.0 W/m2
02:10 13.6 °C -7.7 °C 1015.1 hPa NE 7.9 km/h 9.7 km/h 22% 0 mm 0.0 W/m2
02:15 13.8 °C -7.6 °C 1015.1 hPa Calm   9.7 km/h 22% 0 mm 0.0 W/m2
02:25 14.2 °C -7.2 °C 1015.1 hPa NE 7.9 km/h 9.7 km/h 22% 0 mm 0.0 W/m2
02:30 14.1 °C -7.3 °C 1015.1 hPa NE 3.2 km/h 9.7 km/h 22% 0 mm 0.0 W/m2
02:35 14 °C -6.8 °C 1015.1 hPa NE 4.7 km/h 9.7 km/h 23% 0 mm 0.0 W/m2
02:40 14.4 °C -6.5 °C 1015.5 hPa Calm   8 km/h 23% 0 mm 0.0 W/m2
02:45 14.4 °C -7.1 °C 1015.5 hPa Calm     22% 0 mm 0.0 W/m2
02:51 14.3 °C -6.6 °C 1015.1 hPa NE 1.4 km/h 8 km/h 23% 0 mm 0.0 W/m2
02:56 14.8 °C -6.1 °C 1015.1 hPa NE 3.2 km/h 3.2 km/h 23% 0 mm 0.0 W/m2
03:06 15.2 °C -5.8 °C 1015.1 hPa NE 3.2 km/h 8 km/h 23% 0 mm 0.0 W/m2
03:11 15.2 °C -5.8 °C 1015.1 hPa NE 4.7 km/h 8 km/h 23% 0 mm 0.0 W/m2
03:16 14.9 °C -6.1 °C 1015.1 hPa NE 4.7 km/h 8 km/h 23% 0 mm 0.0 W/m2
03:21 14.3 °C -6.6 °C 1015.1 hPa NE 4.7 km/h 6.4 km/h 23% 0 mm 0.0 W/m2
03:26 13.7 °C -6 °C 1015.1 hPa NE 1.4 km/h 4.8 km/h 25% 0 mm 0.0 W/m2
03:31 13.4 °C -6.2 °C 1015.1 hPa Calm     25% 0 mm 0.0 W/m2
03:37 13.1 °C -6 °C 1015.1 hPa Calm   4.8 km/h 26% 0 mm 0.0 W/m2
03:42 12.9 °C -6.2 °C 1015.1 hPa Calm     26% 0 mm 0.0 W/m2
03:47 12.6 °C -6.4 °C 1015.1 hPa Calm     26% 0 mm 0.0 W/m2
03:52 12.2 °C -6.8 °C 1015.1 hPa Calm     26% 0 mm 0.0 W/m2
03:57 11.7 °C -7.2 °C 1015.1 hPa Calm     26% 0 mm 0.0 W/m2
04:02 11.2 °C -7.1 °C 1015.1 hPa Calm     27% 0 mm 0.0 W/m2
04:17 10.3 °C -7 °C 1015.5 hPa Calm     29% 0 mm 0.0 W/m2
04:23 10.2 °C -7.1 °C 1015.5 hPa Calm     29% 0 mm 0.0 W/m2
04:28 10.3 °C -6.5 °C 1015.5 hPa Calm     30% 0 mm 0.0 W/m2
04:33 10.3 °C -7 °C 1015.8 hPa Calm     29% 0 mm 0.0 W/m2
04:38 10.2 °C -7.1 °C 1015.8 hPa Calm     29% 0 mm 0.0 W/m2
04:43 10.1 °C -6.7 °C 1015.8 hPa Calm     30% 0 mm 0.0 W/m2
04:48 10.2 °C -6.6 °C 1016.1 hPa Calm     30% 0 mm 0.0 W/m2
04:54 10 °C -6.8 °C 1016.1 hPa Calm     30% 0 mm 0.0 W/m2
04:59 9.8 °C -6.5 °C 1016.1 hPa Calm     31% 0 mm 0.0 W/m2
05:04 9.7 °C -6.6 °C 1016.1 hPa Calm     31% 0 mm 0.0 W/m2
05:09 9.6 °C -6.7 °C 1016.1 hPa Calm     31% 0 mm 0.0 W/m2
05:14 9.4 °C -6.5 °C 1016.1 hPa Calm     32% 0 mm 0.0 W/m2
05:19 9.4 °C -6.9 °C 1016.1 hPa Calm     31% 0 mm 0.0 W/m2
05:24 9.3 °C -7 °C 1016.1 hPa Calm     31% 0 mm 0.0 W/m2
05:29 9.2 °C -6.7 °C 1016.5 hPa Calm     32% 0 mm 0.0 W/m2
05:35 9.2 °C -7.1 °C 1016.5 hPa Calm     31% 0 mm 0.0 W/m2
05:40 9.1 °C -6.3 °C 1016.5 hPa Calm     33% 0 mm 0.0 W/m2
05:45 9.2 °C -6.2 °C 1016.5 hPa NE 1.4 km/h 1.6 km/h 33% 0 mm 0.0 W/m2
05:50 9.3 °C -6.6 °C 1016.8 hPa NE 3.2 km/h 8 km/h 32% 0 mm 0.0 W/m2
05:55 9.3 °C -6.6 °C 1016.8 hPa NE 7.9 km/h 9.7 km/h 32% 0 mm 0.0 W/m2
06:05 9 °C -7.2 °C 1016.8 hPa NE 11.1 km/h 12.9 km/h 31% 0 mm 0.0 W/m2
06:10 8.5 °C -7.3 °C 1016.8 hPa NE 7.9 km/h 12.9 km/h 32% 0 mm 0.0 W/m2
06:20 8.1 °C -7.2 °C 1016.8 hPa NE 9.7 km/h 11.3 km/h 33% 0 mm 5.0 W/m2
06:25 8.2 °C -6.7 °C 1017.2 hPa NE 6.4 km/h 11.3 km/h 34% 0 mm 9.0 W/m2
06:31 8.2 °C -7.1 °C 1017.2 hPa NE 7.9 km/h 11.3 km/h 33% 0 mm 12.0 W/m2
06:36 8.2 °C -7.1 °C 1017.5 hPa NE 4.7 km/h 9.7 km/h 33% 0 mm 14.0 W/m2
06:42 8.3 °C -6.7 °C 1017.5 hPa NE 1.4 km/h 3.2 km/h 34% 0 mm 16.0 W/m2
Canyon Roadhouse, Fishriver Canyon, Namibia
Compliments of Weather Underground - 2 mb